Time;durP1;ratioP1;P1;durP2;ratioP2;P2;SDS_P1;SDS_P2;PMS_P1;PMS_P2;Temp;Humidity;BMP_temperature;BMP_pressure;BME280_temperature;BME280_humidity;BME280_pressure;Samples;Min_cycle;Max_cycle;Signal;HPM_P1;HPM_P2
2022/09/27 00:01:21;;;;;;;1.65;1.50;;;19.20;69.70;;;;;;5167179;23;20016;-48
2022/09/27 00:03:44;;;;;;;2.60;1.60;;;19.20;69.70;;;;;;5169395;22;20028;-44
2022/09/27 00:06:12;;;;;;;3.72;1.67;;;19.20;69.90;;;;;;5167106;23;20012;-49
2022/09/27 00:08:36;;;;;;;1.85;1.55;;;19.20;70.00;;;;;;5166631;23;20545;-45
2022/09/27 00:11:03;;;;;;;2.70;1.85;;;19.20;70.10;;;;;;5167205;23;20499;-47
2022/09/27 00:13:26;;;;;;;1.92;1.60;;;19.20;70.10;;;;;;5167855;23;20043;-51
2022/09/27 00:16:04;;;;;;;2.65;1.60;;;19.20;70.00;;;;;;5166989;23;20040;-49
2022/09/27 00:18:27;;;;;;;2.83;1.80;;;19.20;70.00;;;;;;5165662;23;20015;-52
2022/09/27 00:20:50;;;;;;;4.80;1.67;;;19.20;70.10;;;;;;5167486;23;20016;-46
2022/09/27 00:23:13;;;;;;;2.15;1.73;;;19.30;70.20;;;;;;5159302;23;20028;-47
2022/09/27 00:25:35;;;;;;;1.98;1.33;;;19.20;70.20;;;;;;5166593;23;20365;-49
2022/09/27 00:27:58;;;;;;;1.88;1.50;;;19.20;70.20;;;;;;5166843;23;20352;-47
2022/09/27 00:30:20;;;;;;;2.03;1.55;;;19.20;70.20;;;;;;5167425;23;20012;-48
2022/09/27 00:32:43;;;;;;;1.60;1.35;;;19.30;70.20;;;;;;5158904;23;20020;-49
2022/09/27 00:35:06;;;;;;;1.88;1.60;;;19.20;70.20;;;;;;5166754;23;20012;-49
2022/09/27 00:37:28;;;;;;;1.95;1.50;;;19.30;70.10;;;;;;5166326;23;20039;-46
2022/09/27 00:39:51;;;;;;;2.38;1.33;;;19.30;70.10;;;;;;5165587;23;20058;-45
2022/09/27 00:42:14;;;;;;;6.03;1.85;;;19.30;70.40;;;;;;5167269;23;20016;-47
2022/09/27 00:44:40;;;;;;;3.42;1.88;;;19.30;71.00;;;;;;5167879;23;20070;-49
2022/09/27 00:47:02;;;;;;;4.05;1.70;;;19.30;70.30;;;;;;5167027;23;20062;-50
2022/09/27 00:49:32;;;;;;;3.22;1.90;;;19.40;70.30;;;;;;5156317;23;20016;-47
2022/09/27 00:52:03;;;;;;;4.22;1.90;;;19.40;70.40;;;;;;5157839;23;20457;-44
2022/09/27 00:54:27;;;;;;;3.33;1.65;;;19.40;70.60;;;;;;5167128;23;20306;-51
2022/09/27 00:56:49;;;;;;;;;;;19.40;70.60;;;;;;5168502;23;20023;-49
2022/09/27 00:59:29;;;;;;;3.80;1.60;;;19.50;70.50;;;;;;5166971;23;19995;-50
2022/09/27 01:01:51;;;;;;;4.30;2.00;;;19.50;70.50;;;;;;5166876;23;20149;-46
2022/09/27 01:04:17;;;;;;;3.90;2.08;;;19.50;70.30;;;;;;5165531;22;20027;-50
2022/09/27 01:06:40;;;;;;;2.78;1.75;;;19.50;70.30;;;;;;5165812;23;20129;-47
2022/09/27 01:09:03;;;;;;;4.20;1.63;;;19.50;70.30;;;;;;5165265;23;20512;-48
2022/09/27 01:11:31;;;;;;;4.55;1.80;;;19.50;70.30;;;;;;5166355;23;20054;-51
2022/09/27 01:14:10;;;;;;;2.38;1.80;;;19.50;70.20;;;;;;5166453;23;20368;-52
2022/09/27 01:16:38;;;;;;;6.05;1.75;;;19.50;70.30;;;;;;5166859;23;20462;-47
2022/09/27 01:19:19;;;;;;;2.05;1.70;;;19.50;70.30;;;;;;5168111;23;20395;-52
2022/09/27 01:21:51;;;;;;;2.83;1.83;;;19.50;70.30;;;;;;5166780;23;20290;-49
2022/09/27 01:24:42;;;;;;;2.72;1.50;;;19.60;70.90;;;;;;5166060;23;20026;-53
2022/09/27 01:27:23;;;;;;;2.28;1.73;;;19.60;70.20;;;;;;5149911;23;20008;-48
2022/09/27 01:30:13;;;;;;;3.58;1.80;;;19.60;70.30;;;;;;5165906;23;20522;-51
2022/09/27 01:32:48;;;;;;;2.72;1.80;;;19.60;70.50;;;;;;5166572;23;20023;-48
2022/09/27 01:35:25;;;;;;;4.50;1.92;;;19.60;70.30;;;;;;5165054;23;20015;-53
2022/09/27 01:38:02;;;;;;;3.30;1.50;;;19.60;70.30;;;;;;5166934;23;20039;-53
2022/09/27 01:40:41;;;;;;;3.25;1.70;;;19.60;70.30;;;;;;5165997;23;20016;-51
2022/09/27 01:43:14;;;;;;;5.80;1.52;;;19.70;70.30;;;;;;5165843;23;20028;-50
2022/09/27 01:45:51;;;;;;;12.05;2.90;;;19.70;70.30;;;;;;5156475;23;20008;-63
2022/09/27 01:48:34;;;;;;;13.73;2.88;;;19.80;70.10;;;;;;5156731;23;20020;-54
2022/09/27 01:51:29;;;;;;;16.05;2.33;;;19.80;70.00;;;;;;5165096;23;20012;-47
2022/09/27 01:53:54;;;;;;;7.38;2.40;;;19.90;70.50;;;;;;5168147;23;20078;-51
2022/09/27 01:56:40;;;;;;;7.72;2.58;;;20.00;70.60;;;;;;5166735;23;20012;-47
2022/09/27 01:59:16;;;;;;;4.85;2.40;;;20.10;71.00;;;;;;5157533;23;20020;-45
2022/09/27 02:01:41;;;;;;;5.68;2.20;;;20.20;70.80;;;;;;5169890;23;20095;-50
2022/09/27 02:04:06;;;;;;;6.85;2.20;;;20.20;70.60;;;;;;5171702;22;20344;-51
2022/09/27 02:06:45;;;;;;;3.35;2.17;;;20.20;70.50;;;;;;5173634;23;20083;-48
2022/09/27 02:09:30;;;;;;;5.78;2.13;;;20.30;70.40;;;;;;5175462;23;20019;-48
2022/09/27 02:11:57;;;;;;;8.07;1.88;;;20.30;70.20;;;;;;5165720;23;20019;-50
2022/09/27 02:14:32;;;;;;;2.45;1.83;;;20.40;69.90;;;;;;5169978;23;20027;-46
2022/09/27 02:17:09;;;;;;;3.17;1.95;;;20.40;69.70;;;;;;5168109;23;20383;-50
2022/09/27 02:19:53;;;;;;;2.85;1.70;;;20.50;69.70;;;;;;5168600;23;20062;-51
2022/09/27 02:22:19;;;;;;;2.88;2.00;;;20.50;69.40;;;;;;5166405;23;20016;-49
2022/09/27 02:25:07;;;;;;;2.47;1.90;;;20.60;69.40;;;;;;5167955;23;20416;-46
2022/09/27 02:27:56;;;;;;;3.15;1.73;;;20.60;69.20;;;;;;5159992;23;20116;-49
2022/09/27 02:30:19;;;;;;;3.33;1.92;;;20.70;69.10;;;;;;5167559;23;20023;-46
2022/09/27 02:32:43;;;;;;;2.72;1.80;;;20.70;69.00;;;;;;5168559;23;20396;-46
2022/09/27 02:35:28;;;;;;;3.67;1.80;;;20.70;68.80;;;;;;5168175;23;20012;-49
2022/09/27 02:37:51;;;;;;;5.00;1.90;;;20.80;69.00;;;;;;5168370;23;20052;-48
2022/09/27 02:40:15;;;;;;;4.60;2.05;;;20.80;68.80;;;;;;5167512;23;20597;-51
2022/09/27 02:42:37;;;;;;;2.47;1.50;;;20.80;68.70;;;;;;5168215;23;20050;-47
2022/09/27 02:45:01;;;;;;;3.33;1.60;;;20.90;68.70;;;;;;5167758;23;20083;-51
2022/09/27 02:47:50;;;;;;;2.45;1.50;;;20.90;68.60;;;;;;5168612;23;20008;-49
2022/09/27 02:50:38;;;;;;;1.52;1.10;;;20.90;68.50;;;;;;5167199;23;20032;-50
2022/09/27 02:53:12;;;;;;;1.95;1.50;;;21.00;68.40;;;;;;5167640;23;20471;-49
2022/09/27 02:55:51;;;;;;;2.47;1.58;;;21.10;68.30;;;;;;5135447;23;20025;-49
2022/09/27 02:58:44;;;;;;;2.35;1.77;;;21.10;68.20;;;;;;5165929;23;20044;-58
2022/09/27 03:01:20;;;;;;;3.05;1.80;;;21.10;67.60;;;;;;5166617;23;20019;-58
2022/09/27 03:04:07;;;;;;;3.72;2.10;;;21.10;67.00;;;;;;5166248;22;20020;-48
2022/09/27 03:06:29;;;;;;;3.25;2.00;;;21.20;67.10;;;;;;5166593;23;20126;-51
2022/09/27 03:08:52;;;;;;;2.30;1.88;;;21.10;67.10;;;;;;5167671;23;20012;-47
2022/09/27 03:11:15;;;;;;;2.47;2.00;;;21.20;67.40;;;;;;5158099;23;20122;-51
2022/09/27 03:13:38;;;;;;;2.38;1.67;;;21.20;67.30;;;;;;5167289;23;20012;-48
2022/09/27 03:16:01;;;;;;;5.03;2.00;;;21.30;67.40;;;;;;5167579;23;20012;-49
2022/09/27 03:18:24;;;;;;;2.17;1.67;;;21.30;67.40;;;;;;5169073;23;20008;-51
2022/09/27 03:20:46;;;;;;;2.60;1.80;;;21.40;67.40;;;;;;5166953;23;20228;-49
2022/09/27 03:23:09;;;;;;;3.08;1.80;;;21.40;67.30;;;;;;5165779;23;20023;-48
2022/09/27 03:25:31;;;;;;;6.57;1.65;;;21.40;67.30;;;;;;5166780;23;20440;-52
2022/09/27 03:27:54;;;;;;;1.70;1.40;;;21.50;67.30;;;;;;5167622;23;20368;-53
2022/09/27 03:30:16;;;;;;;2.50;1.77;;;21.50;67.40;;;;;;5168104;23;20145;-53
2022/09/27 03:32:43;;;;;;;2.17;1.60;;;21.50;67.40;;;;;;5167299;23;20019;-52
2022/09/27 03:35:06;;;;;;;3.05;1.50;;;21.60;67.70;;;;;;5159667;23;20016;-50
2022/09/27 03:37:28;;;;;;;2.85;1.63;;;21.60;68.60;;;;;;5163685;23;20073;-46
2022/09/27 03:39:51;;;;;;;1.75;1.45;;;21.60;68.70;;;;;;5166405;23;20016;-48
2022/09/27 03:42:13;;;;;;;2.72;1.65;;;21.60;68.10;;;;;;5165961;23;20016;-51
2022/09/27 03:44:36;;;;;;;2.85;1.50;;;21.70;68.10;;;;;;5167855;23;20036;-52
2022/09/27 03:46:59;;;;;;;3.30;1.55;;;21.70;68.00;;;;;;5136082;23;20186;-46
2022/09/27 03:49:21;;;;;;;2.90;1.50;;;21.70;67.90;;;;;;5137696;23;20016;-49
2022/09/27 03:51:44;;;;;;;2.97;1.73;;;21.80;67.80;;;;;;5168271;23;20061;-52
2022/09/27 03:54:07;;;;;;;2.65;1.42;;;21.80;67.80;;;;;;5163049;23;20023;-48
2022/09/27 03:56:29;;;;;;;1.67;1.27;;;21.80;67.80;;;;;;5169258;23;20372;-53
2022/09/27 03:58:52;;;;;;;2.95;1.55;;;21.90;67.80;;;;;;5168918;23;20062;-51
2022/09/27 04:01:15;;;;;;;2.25;1.58;;;21.90;67.90;;;;;;5168547;23;20023;-48
2022/09/27 04:03:37;;;;;;;2.33;1.10;;;21.90;68.00;;;;;;5168484;22;20311;-55
2022/09/27 04:06:00;;;;;;;2.35;1.42;;;22.00;68.00;;;;;;5138088;23;20387;-52
2022/09/27 04:08:23;;;;;;;1.85;1.30;;;22.00;68.00;;;;;;5168187;23;20452;-50
2022/09/27 04:10:45;;;;;;;2.97;1.42;;;22.00;68.00;;;;;;5169021;23;20022;-51
2022/09/27 04:13:08;;;;;;;3.08;1.40;;;22.00;68.00;;;;;;5169334;23;20008;-48
2022/09/27 04:15:30;;;;;;;1.85;1.50;;;22.00;68.10;;;;;;5168195;23;20027;-52
2022/09/27 04:17:53;;;;;;;2.58;1.23;;;22.00;68.00;;;;;;5168936;23;20015;-52
2022/09/27 04:20:17;;;;;;;3.28;1.13;;;22.00;68.10;;;;;;5168717;23;20027;-51
2022/09/27 04:22:42;;;;;;;2.78;1.33;;;22.00;68.10;;;;;;5160547;23;20329;-54
2022/09/27 04:25:06;;;;;;;2.00;1.40;;;22.00;68.10;;;;;;5161581;23;20015;-50
2022/09/27 04:27:28;;;;;;;1.63;1.20;;;22.00;68.20;;;;;;5168167;23;20020;-51
2022/09/27 04:29:51;;;;;;;2.22;1.50;;;22.00;68.10;;;;;;5168429;23;20074;-49
2022/09/27 04:32:14;;;;;;;1.95;1.48;;;22.00;68.10;;;;;;5168470;23;20051;-55
2022/09/27 04:37:17;;;;;;;2.58;1.45;;;22.10;68.20;;;;;;5167232;23;20012;-49
2022/09/27 04:39:39;;;;;;;1.67;1.48;;;22.10;68.30;;;;;;5166818;23;20416;-48
2022/09/27 04:42:02;;;;;;;2.95;1.20;;;22.00;68.30;;;;;;5166210;23;20042;-53
2022/09/27 04:44:25;;;;;;;1.88;1.13;;;22.10;68.20;;;;;;5165477;23;20031;-52
2022/09/27 04:46:47;;;;;;;1.80;1.30;;;22.10;68.70;;;;;;5155727;23;20592;-47
2022/09/27 04:49:10;;;;;;;1.40;1.23;;;22.10;68.10;;;;;;5157532;23;20028;-50
2022/09/27 04:51:32;;;;;;;1.77;1.35;;;22.20;68.00;;;;;;5156044;23;20503;-51
2022/09/27 04:53:57;;;;;;;1.85;1.30;;;22.20;68.00;;;;;;5158169;23;20034;-51
2022/09/27 04:56:19;;;;;;;1.73;1.38;;;22.20;68.00;;;;;;5156124;23;20020;-51
2022/09/27 04:58:42;;;;;;;2.10;1.60;;;22.20;68.30;;;;;;5155651;23;20016;-52
2022/09/27 05:01:06;;;;;;;2.35;1.60;;;22.30;68.00;;;;;;5155107;23;20471;-55
2022/09/27 05:03:29;;;;;;;1.63;1.40;;;22.40;67.50;;;;;;5155461;22;20123;-50
2022/09/27 05:05:51;;;;;;;1.80;1.35;;;22.50;67.90;;;;;;5155127;23;20532;-51
2022/09/27 05:08:14;;;;;;;1.67;1.30;;;22.50;67.70;;;;;;5154538;23;20483;-48
2022/09/27 05:10:37;;;;;;;1.45;1.27;;;22.70;67.60;;;;;;5158315;23;20012;-50
2022/09/27 05:12:59;;;;;;;2.13;1.42;;;22.80;67.10;;;;;;5159398;23;20496;-53
2022/09/27 05:15:23;;;;;;;1.60;1.20;;;22.90;66.80;;;;;;5159031;23;20745;-52
2022/09/27 05:17:45;;;;;;;1.95;1.23;;;23.00;66.50;;;;;;5158095;23;20023;-46
2022/09/27 05:20:09;;;;;;;3.53;1.30;;;23.20;66.30;;;;;;5158957;23;20042;-46
2022/09/27 05:22:32;;;;;;;1.58;1.15;;;23.30;66.00;;;;;;5158059;23;20039;-53
2022/09/27 05:24:55;;;;;;;1.85;1.27;;;23.30;66.00;;;;;;5150446;23;20016;-48
2022/09/27 05:27:19;;;;;;;8.70;1.88;;;23.30;65.90;;;;;;5158408;23;20016;-49
2022/09/27 05:29:41;;;;;;;2.88;1.40;;;23.30;65.80;;;;;;5151887;23;20434;-52
2022/09/27 05:32:04;;;;;;;1.55;1.13;;;23.30;65.90;;;;;;5157523;23;20055;-49
2022/09/27 05:34:27;;;;;;;1.95;1.23;;;23.30;65.80;;;;;;5157707;23;20019;-49
2022/09/27 05:36:50;;;;;;;1.80;1.30;;;23.30;66.00;;;;;;5156825;23;20294;-54
2022/09/27 05:39:12;;;;;;;1.20;1.10;;;23.30;66.10;;;;;;5158993;23;20012;-49
2022/09/27 05:41:35;;;;;;;1.48;1.08;;;23.30;66.00;;;;;;5157904;23;20046;-48
2022/09/27 05:43:58;;;;;;;1.60;1.02;;;23.30;66.10;;;;;;5157257;23;20020;-48
2022/09/27 05:46:21;;;;;;;1.30;0.93;;;23.30;66.10;;;;;;5156064;23;20504;-54
2022/09/27 05:48:43;;;;;;;1.88;1.15;;;23.30;66.20;;;;;;5157968;23;20023;-51
2022/09/27 05:51:06;;;;;;;1.52;1.02;;;23.30;66.20;;;;;;5158023;23;20024;-46
2022/09/27 05:53:30;;;;;;;1.70;0.90;;;23.30;66.20;;;;;;5152146;22;20020;-48
2022/09/27 05:55:53;;;;;;;1.30;1.08;;;23.30;66.20;;;;;;5150114;23;20020;-52
2022/09/27 05:58:16;;;;;;;1.77;1.20;;;23.30;66.20;;;;;;5160323;23;20335;-50
2022/09/27 06:00:38;;;;;;;1.13;1.00;;;23.30;66.30;;;;;;5164445;23;20095;-48
2022/09/27 06:03:04;;;;;;;2.08;1.15;;;23.30;66.10;;;;;;5168871;22;20024;-46
2022/09/27 06:05:29;;;;;;;0.90;0.90;;;23.30;66.30;;;;;;5167449;23;20012;-54
2022/09/27 06:07:57;;;;;;;3.00;1.05;;;23.30;66.30;;;;;;5165840;23;20070;-51
2022/09/27 06:10:20;;;;;;;2.45;1.35;;;23.30;66.30;;;;;;5169056;23;20295;-49
2022/09/27 06:12:42;;;;;;;1.97;1.07;;;23.30;66.20;;;;;;5159085;23;20150;-51
2022/09/27 06:15:05;;;;;;;1.55;1.10;;;23.30;66.20;;;;;;5167465;23;20479;-52
2022/09/27 06:17:28;;;;;;;2.67;0.98;;;23.20;66.30;;;;;;5166872;23;20020;-53
2022/09/27 06:19:51;;;;;;;2.20;1.00;;;23.20;66.30;;;;;;5165754;23;20016;-47
2022/09/27 06:22:13;;;;;;;1.20;0.90;;;23.20;66.40;;;;;;5166904;23;20031;-53
2022/09/27 06:24:36;;;;;;;1.38;1.00;;;23.20;66.30;;;;;;5169432;23;20389;-51
2022/09/27 06:26:58;;;;;;;2.40;1.45;;;23.20;66.30;;;;;;5169674;23;20066;-48
2022/09/27 06:29:21;;;;;;;2.05;0.90;;;23.20;66.30;;;;;;5140804;23;20020;-51
2022/09/27 06:31:43;;;;;;;2.17;1.08;;;23.20;66.30;;;;;;5171117;23;20058;-48
2022/09/27 06:34:07;;;;;;;1.52;1.00;;;23.20;66.20;;;;;;5170838;23;20011;-52
2022/09/27 06:36:32;;;;;;;1.27;0.88;;;23.20;66.20;;;;;;5137728;23;20111;-53
2022/09/27 06:38:54;;;;;;;1.77;1.02;;;23.20;66.20;;;;;;5159992;23;20657;-51
2022/09/27 06:41:17;;;;;;;1.60;1.15;;;23.30;66.20;;;;;;5167753;23;20012;-48
2022/09/27 06:43:39;;;;;;;1.08;0.90;;;23.30;66.10;;;;;;5135055;23;20048;-51
2022/09/27 06:46:06;;;;;;;1.13;0.93;;;23.30;66.00;;;;;;5165822;23;20011;-53
2022/09/27 06:48:28;;;;;;;2.80;1.10;;;23.40;66.50;;;;;;5166759;23;20470;-63
2022/09/27 06:50:54;;;;;;;3.60;1.63;;;23.40;65.90;;;;;;5167359;23;20016;-60
2022/09/27 06:53:17;;;;;;;2.60;1.77;;;23.30;64.30;;;;;;5167540;23;20012;-50
2022/09/27 06:55:40;;;;;;;3.15;2.20;;;23.30;63.80;;;;;;5168626;23;20028;-40
2022/09/27 07:00:46;;;;;;;3.85;1.90;;;23.20;64.10;;;;;;5165594;23;20091;-43
2022/09/27 07:03:13;;;;;;;2.75;1.77;;;23.10;65.00;;;;;;5166872;22;20125;-44
2022/09/27 07:05:35;;;;;;;3.80;1.52;;;23.10;64.60;;;;;;5166970;23;20337;-40
2022/09/27 07:07:58;;;;;;;3.67;1.90;;;23.10;64.70;;;;;;5136135;23;20461;-41
2022/09/27 07:10:21;;;;;;;3.13;1.50;;;23.10;64.80;;;;;;5168520;23;20008;-42
2022/09/27 07:12:47;;;;;;;2.78;1.77;;;23.10;64.90;;;;;;5166634;23;20035;-42
2022/09/27 07:15:10;;;;;;;3.92;1.50;;;23.10;65.00;;;;;;5165070;23;20027;-42
2022/09/27 07:17:34;;;;;;;2.78;1.25;;;23.10;65.00;;;;;;5165538;23;20399;-41
2022/09/27 07:19:57;;;;;;;3.42;1.70;;;23.10;64.90;;;;;;5165406;23;20015;-44
2022/09/27 07:22:20;;;;;;;3.15;1.50;;;23.10;64.90;;;;;;5164860;23;20024;-45
2022/09/27 07:24:42;;;;;;;2.22;1.40;;;23.10;64.90;;;;;;5134980;23;20027;-42
2022/09/27 07:27:05;;;;;;;5.53;1.60;;;23.10;64.90;;;;;;5166409;23;20053;-48
2022/09/27 07:29:28;;;;;;;2.55;1.33;;;23.10;65.00;;;;;;5165978;23;20016;-47
2022/09/27 07:31:51;;;;;;;3.45;1.40;;;23.10;65.00;;;;;;5166208;23;20099;-43
2022/09/27 07:34:17;;;;;;;3.33;1.40;;;23.00;65.00;;;;;;5165539;23;20417;-47
2022/09/27 07:36:39;;;;;;;2.72;1.65;;;23.00;65.00;;;;;;5135860;23;20023;-43
2022/09/27 07:39:02;;;;;;;3.83;1.48;;;23.00;65.70;;;;;;5166055;23;20352;-46
2022/09/27 07:41:25;;;;;;;2.83;1.60;;;23.00;65.10;;;;;;5167174;23;20019;-40
2022/09/27 07:43:47;;;;;;;3.35;1.58;;;23.00;65.00;;;;;;5166486;23;20731;-41
2022/09/27 07:46:10;;;;;;;4.00;2.13;;;23.00;64.60;;;;;;5168940;23;20445;-44
2022/09/27 07:48:32;;;;;;;4.30;2.30;;;23.00;64.20;;;;;;5168573;23;20019;-43
2022/09/27 07:50:55;;;;;;;3.22;1.95;;;22.90;64.10;;;;;;5161581;23;20020;-41
2022/09/27 07:53:17;;;;;;;3.38;1.83;;;22.90;64.00;;;;;;5168791;23;20070;-43
2022/09/27 07:55:41;;;;;;;3.20;2.00;;;22.90;63.90;;;;;;5169556;23;20016;-41
2022/09/27 07:58:07;;;;;;;4.05;1.70;;;22.80;63.80;;;;;;5166393;23;20111;-45
2022/09/27 08:00:30;;;;;;;4.53;2.00;;;22.80;63.80;;;;;;5159040;23;20495;-42
2022/09/27 08:02:52;;;;;;;2.72;1.80;;;22.80;64.00;;;;;;5166575;22;20078;-43
2022/09/27 08:05:15;;;;;;;2.42;1.50;;;22.70;64.10;;;;;;5147659;23;20412;-43
2022/09/27 08:07:39;;;;;;;5.75;1.80;;;22.70;64.40;;;;;;5158475;23;20045;-44
2022/09/27 08:10:01;;;;;;;2.90;1.55;;;22.70;64.60;;;;;;5159250;23;20047;-47
2022/09/27 08:12:24;;;;;;;2.75;1.55;;;22.70;64.80;;;;;;5159550;23;20070;-45
2022/09/27 08:14:47;;;;;;;3.00;1.40;;;22.70;65.00;;;;;;5158188;23;20016;-48
2022/09/27 08:17:13;;;;;;;3.17;1.37;;;22.80;65.20;;;;;;5159122;23;20024;-43
2022/09/27 08:19:36;;;;;;;1.38;1.10;;;22.80;65.30;;;;;;5158042;23;20020;-47
2022/09/27 08:21:59;;;;;;;7.38;1.35;;;22.70;65.30;;;;;;5158118;23;20012;-46
2022/09/27 08:24:21;;;;;;;2.53;1.42;;;22.80;65.50;;;;;;5157953;23;20081;-44
2022/09/27 08:26:44;;;;;;;3.50;1.27;;;22.70;65.70;;;;;;5157504;23;20140;-43
2022/09/27 08:29:08;;;;;;;4.03;1.48;;;22.70;65.70;;;;;;5156188;23;20046;-43
2022/09/27 08:31:30;;;;;;;1.42;1.10;;;22.80;65.70;;;;;;5147953;23;20018;-44
2022/09/27 08:33:53;;;;;;;1.95;1.30;;;22.80;65.80;;;;;;5155962;23;20463;-46
2022/09/27 08:36:16;;;;;;;2.75;0.90;;;22.80;65.80;;;;;;5148336;23;20353;-46
2022/09/27 08:38:39;;;;;;;1.58;1.00;;;22.80;65.80;;;;;;5157679;23;20016;-43
2022/09/27 08:41:23;;;;;;;4.78;1.13;;;22.80;65.90;;;;;;5155745;23;20015;-47
2022/09/27 08:44:29;;;;;;;2.42;1.00;;;22.80;65.90;;;;;;5165470;23;20024;-47
2022/09/27 08:47:02;;;;;;;1.95;1.27;;;22.80;65.90;;;;;;5165238;23;20012;-47
2022/09/27 08:49:52;;;;;;;1.60;1.00;;;22.80;66.00;;;;;;5166175;23;20447;-46
2022/09/27 08:52:23;;;;;;;2.17;0.85;;;22.80;66.00;;;;;;5154998;23;20424;-43
2022/09/27 08:54:47;;;;;;;3.25;0.98;;;22.80;66.00;;;;;;5167205;23;20058;-46
2022/09/27 08:57:12;;;;;;;1.42;1.17;;;22.70;66.00;;;;;;5165146;23;20020;-43
2022/09/27 08:59:49;;;;;;;1.02;0.88;;;22.80;66.10;;;;;;5165636;23;20023;-42
2022/09/27 09:02:19;;;;;;;2.80;1.00;;;22.70;66.00;;;;;;5138351;23;20102;-43
2022/09/27 09:04:42;;;;;;;1.90;1.15;;;22.70;66.00;;;;;;5158701;22;20058;-46
2022/09/27 09:07:27;;;;;;;2.30;0.95;;;22.70;66.00;;;;;;5158190;23;20015;-47
2022/09/27 09:12:45;;;;;;;1.05;0.90;;;22.70;66.00;;;;;;5150718;23;20027;-46
2022/09/27 09:13:25;;;;;;;2.65;1.05;;;22.80;66.00;;;;;;5153368;23;20536;-50
2022/09/27 09:16:22;;;;;;;2.40;1.02;;;22.70;66.00;;;;;;5154723;23;20016;-49
2022/09/27 09:18:53;;;;;;;3.28;1.17;;;22.80;66.30;;;;;;5163879;23;20023;-43
2022/09/27 09:21:38;;;;;;;11.27;1.23;;;22.70;66.20;;;;;;5128884;23;20022;-47
2022/09/27 09:24:00;;;;;;;5.32;1.20;;;22.70;66.20;;;;;;5161847;23;20024;-43
2022/09/27 09:26:29;;;;;;;7.22;1.58;;;22.80;66.20;;;;;;5161392;23;20019;-57
2022/09/27 09:28:59;;;;;;;3.50;1.80;;;22.70;65.10;;;;;;5163636;23;20016;-44
2022/09/27 09:31:40;;;;;;;8.07;1.90;;;22.70;64.40;;;;;;5132217;23;20078;-45
2022/09/27 09:34:09;;;;;;;4.82;1.60;;;22.70;64.50;;;;;;5154470;23;20066;-44
2022/09/27 09:36:55;;;;;;;2.75;1.80;;;22.70;63.90;;;;;;5162148;23;20008;-50
2022/09/27 09:39:32;;;;;;;3.38;1.67;;;22.70;63.50;;;;;;5155791;23;20121;-43
2022/09/27 09:42:13;;;;;;;4.07;1.92;;;22.60;63.30;;;;;;5163991;23;20022;-42
2022/09/27 09:44:47;;;;;;;4.53;1.50;;;22.60;63.30;;;;;;5132548;23;20025;-42
2022/09/27 09:47:43;;;;;;;2.90;1.75;;;22.60;63.20;;;;;;5163058;23;20035;-43
2022/09/27 09:50:31;;;;;;;3.20;1.52;;;22.60;63.20;;;;;;5119133;23;20028;-42
2022/09/27 09:53:10;;;;;;;3.17;1.58;;;22.50;63.20;;;;;;5162893;23;20012;-42
2022/09/27 09:55:38;;;;;;;2.65;1.58;;;22.50;63.10;;;;;;5155334;23;20460;-43
2022/09/27 09:58:23;;;;;;;2.35;1.40;;;22.40;63.10;;;;;;5162369;23;20478;-42
2022/09/27 10:00:50;;;;;;;2.80;1.30;;;22.40;63.10;;;;;;5160899;23;20103;-43
2022/09/27 10:03:12;;;;;;;2.83;1.63;;;22.40;63.10;;;;;;5160069;22;20036;-43
2022/09/27 10:05:35;;;;;;;2.67;1.60;;;22.30;63.10;;;;;;5162643;23;20487;-42
2022/09/27 10:08:01;;;;;;;3.08;1.50;;;22.30;63.10;;;;;;5161393;23;20016;-45
2022/09/27 10:10:24;;;;;;;2.08;1.60;;;22.30;63.10;;;;;;5162157;23;20018;-44
2022/09/27 10:12:48;;;;;;;2.60;1.50;;;22.30;63.10;;;;;;5163573;23;20016;-44
2022/09/27 10:15:34;;;;;;;2.70;1.90;;;22.30;63.10;;;;;;5164605;23;20020;-44
2022/09/27 10:17:59;;;;;;;2.20;1.40;;;22.20;63.10;;;;;;5157031;23;20008;-44
2022/09/27 10:20:52;;;;;;;2.75;1.42;;;22.20;63.10;;;;;;5156473;23;20059;-46
2022/09/27 10:23:20;;;;;;;2.15;1.40;;;22.20;63.20;;;;;;5156113;23;20031;-46
2022/09/27 10:25:58;;;;;;;1.85;1.48;;;22.20;63.20;;;;;;5165392;23;20019;-48
2022/09/27 10:28:27;;;;;;;2.30;1.70;;;22.10;63.10;;;;;;5165817;23;20016;-49
2022/09/27 10:30:56;;;;;;;1.90;1.40;;;22.10;63.10;;;;;;5158253;23;20047;-47
2022/09/27 10:33:19;;;;;;;3.22;1.70;;;22.10;63.10;;;;;;5168680;23;20452;-46
2022/09/27 10:35:45;;;;;;;1.92;1.40;;;22.10;63.10;;;;;;5167320;23;20464;-50
2022/09/27 10:38:32;;;;;;;2.63;1.58;;;22.10;63.20;;;;;;5159717;23;20027;-45
2022/09/27 10:40:57;;;;;;;3.08;1.60;;;22.10;63.20;;;;;;5160145;23;20012;-44
2022/09/27 10:43:27;;;;;;;2.58;1.80;;;22.00;63.10;;;;;;5167629;23;20368;-44
2022/09/27 10:45:50;;;;;;;2.88;1.52;;;22.00;63.10;;;;;;5167067;23;20776;-44
2022/09/27 10:48:23;;;;;;;1.98;1.27;;;22.00;63.10;;;;;;5167753;23;20099;-44
2022/09/27 10:50:57;;;;;;;2.10;1.50;;;22.00;63.10;;;;;;5166857;23;20008;-44
2022/09/27 10:53:21;;;;;;;1.95;1.48;;;22.00;63.20;;;;;;5168920;23;20380;-44
2022/09/27 10:55:48;;;;;;;2.30;1.67;;;22.00;63.20;;;;;;5167091;23;20023;-44
2022/09/27 10:58:32;;;;;;;2.10;1.58;;;21.90;63.10;;;;;;5168362;23;20044;-43
2022/09/27 11:01:00;;;;;;;2.03;1.50;;;21.90;63.40;;;;;;5171716;23;20015;-43
2022/09/27 11:03:25;;;;;;;3.28;1.90;;;21.90;63.10;;;;;;5161775;22;20020;-43
2022/09/27 11:05:47;;;;;;;2.75;1.60;;;21.90;63.10;;;;;;5172245;23;20038;-45
2022/09/27 11:08:26;;;;;;;2.47;1.40;;;21.90;63.20;;;;;;5164850;23;20024;-44
2022/09/27 11:11:15;;;;;;;1.85;1.30;;;21.90;63.20;;;;;;5162314;23;20012;-45
2022/09/27 11:13:38;;;;;;;1.98;1.60;;;21.90;63.10;;;;;;5164523;23;20016;-46
2022/09/27 11:16:31;;;;;;;2.05;1.60;;;21.80;63.10;;;;;;5169202;23;20094;-45
2022/09/27 11:19:35;;;;;;;2.58;1.60;;;21.90;63.20;;;;;;5160880;23;20043;-50
2022/09/27 11:22:13;;;;;;;2.72;1.60;;;21.80;63.20;;;;;;5169900;23;20023;-46
2022/09/27 11:24:39;;;;;;;2.83;1.63;;;21.80;63.20;;;;;;5169882;23;20026;-45
2022/09/27 11:27:20;;;;;;;2.88;1.30;;;21.80;63.10;;;;;;5161070;23;20020;-47
2022/09/27 11:30:05;;;;;;;2.63;1.77;;;21.70;63.10;;;;;;5159499;23;20041;-47
2022/09/27 11:33:04;;;;;;;2.33;1.75;;;21.70;63.20;;;;;;5158468;23;20009;-47
2022/09/27 11:35:35;;;;;;;3.42;1.50;;;21.70;63.20;;;;;;5161275;23;20526;-48
2022/09/27 11:38:03;;;;;;;2.83;1.63;;;21.70;63.20;;;;;;5169545;23;20012;-45
2022/09/27 11:40:46;;;;;;;2.45;1.65;;;21.70;63.30;;;;;;5170748;23;20090;-45
2022/09/27 11:43:36;;;;;;;2.22;1.35;;;21.70;63.30;;;;;;5166139;23;20132;-49
2022/09/27 11:46:38;;;;;;;2.25;1.42;;;21.70;63.30;;;;;;5168123;23;20015;-48
2022/09/27 11:49:31;;;;;;;2.95;1.90;;;21.70;64.10;;;;;;5160013;23;20059;-50
2022/09/27 11:52:18;;;;;;;4.07;1.40;;;21.70;64.20;;;;;;5156623;23;20022;-47
2022/09/27 11:54:59;;;;;;;3.90;1.58;;;21.70;64.70;;;;;;5167334;23;20016;-48
2022/09/27 11:57:46;;;;;;;1.50;1.02;;;21.70;64.90;;;;;;5144976;23;20081;-49
2022/09/27 12:00:19;;;;;;;4.30;1.58;;;21.70;65.10;;;;;;5167608;23;20012;-49
2022/09/27 12:03:03;;;;;;;9.43;1.40;;;21.70;65.30;;;;;;5159106;23;20016;-48
2022/09/27 12:05:38;;;;;;;1.65;1.27;;;21.70;65.50;;;;;;5167187;23;20023;-48
2022/09/27 12:08:27;;;;;;;3.20;1.30;;;21.70;65.60;;;;;;5166562;23;20011;-52
2022/09/27 12:10:55;;;;;;;2.58;1.25;;;21.70;65.70;;;;;;5157663;23;20526;-48
2022/09/27 12:13:47;;;;;;;2.75;1.30;;;21.70;65.90;;;;;;5165169;23;20019;-47
2022/09/27 12:16:12;;;;;;;2.17;1.15;;;21.80;66.00;;;;;;5167326;23;20023;-50
2022/09/27 12:18:40;;;;;;;2.60;1.20;;;21.70;66.00;;;;;;5166243;23;20119;-46
2022/09/27 12:21:03;;;;;;;1.90;1.20;;;21.80;66.20;;;;;;5166540;23;20012;-48
2022/09/27 12:23:39;;;;;;;2.08;1.27;;;21.80;66.20;;;;;;5168869;23;20464;-48
2022/09/27 12:26:25;;;;;;;1.88;1.08;;;21.80;66.20;;;;;;5166302;23;20044;-49
2022/09/27 12:29:17;;;;;;;1.27;0.90;;;21.80;66.90;;;;;;5166224;23;20016;-47
2022/09/27 12:32:01;;;;;;;1.60;1.13;;;21.80;66.30;;;;;;5158391;23;20016;-47
2022/09/27 12:34:42;;;;;;;3.90;1.40;;;21.80;66.30;;;;;;5137736;23;20009;-46
2022/09/27 12:37:11;;;;;;;2.70;1.42;;;21.80;66.00;;;;;;5166059;23;20016;-44
2022/09/27 12:39:41;;;;;;;3.47;1.20;;;21.80;65.80;;;;;;5167408;23;20066;-46
2022/09/27 12:42:30;;;;;;;1.67;1.50;;;21.80;65.60;;;;;;5156550;23;20016;-44
2022/09/27 12:44:53;;;;;;;36.90;3.67;;;21.80;65.70;;;;;;5159548;23;20484;-45
2022/09/27 12:47:52;;;;;;;25.02;2.90;;;21.80;66.90;;;;;;5166603;23;20016;-45
2022/09/27 12:50:15;;;;;;;17.80;2.83;;;21.80;67.00;;;;;;5166516;23;20442;-45
2022/09/27 12:52:44;;;;;;;13.93;2.58;;;21.90;67.20;;;;;;5165503;23;20020;-48
2022/09/27 12:55:35;;;;;;;8.98;2.00;;;21.90;67.10;;;;;;5159076;23;20414;-51
2022/09/27 12:58:21;;;;;;;12.15;2.13;;;21.90;67.10;;;;;;5157562;23;20106;-51
2022/09/27 13:01:41;;;;;;;15.32;2.40;;;21.90;67.00;;;;;;5158411;23;20012;-48
2022/09/27 13:04:33;;;;;;;24.88;3.65;;;21.90;67.00;;;;;;5091291;23;20021;-47